Time;durP1;ratioP1;P1;durP2;ratioP2;P2;SDS_P1;SDS_P2;PMS_P1;PMS_P2;Temp;Humidity;BMP_temperature;BMP_pressure;BME280_temperature;BME280_humidity;BME280_pressure;Samples;Min_cycle;Max_cycle;Signal;HPM_P1;HPM_P2
2024/01/25 00:00:50;;;;;;;30.63;7.40;;;;;;;;;;5001305;28;20274;-60
2024/01/25 00:03:16;;;;;;;32.70;6.63;;;;;;;;;;4996608;28;20120;-62
2024/01/25 00:05:41;;;;;;;34.55;7.55;;;;;;;;;;5001827;28;20026;-59
2024/01/25 00:08:06;;;;;;;37.10;6.77;;;;;;;;;;4992861;28;20023;-59
2024/01/25 00:10:31;;;;;;;32.93;6.37;;;;;;;;;;5005879;28;20279;-59
2024/01/25 00:12:56;;;;;;;29.70;5.53;;;;;;;;;;4993371;28;20747;-59
2024/01/25 00:15:22;;;;;;;33.28;6.65;;;;;;;;;;5002507;28;20687;-61
2024/01/25 00:17:47;;;;;;;34.00;6.38;;;;;;;;;;4997014;28;20031;-60
2024/01/25 00:20:12;;;;;;;34.20;6.37;;;;;;;;;;5001171;28;20029;-59
2024/01/25 00:22:41;;;;;;;34.23;6.57;;;;;;;;;;5012838;28;20288;-61
2024/01/25 00:25:06;;;;;;;28.42;5.47;;;;;;;;;;5005084;28;20452;-59
2024/01/25 00:27:32;;;;;;;30.63;5.88;;;;;;;;;;4999329;28;20101;-60
2024/01/25 00:29:57;;;;;;;31.77;6.20;;;;;;;;;;4997552;28;20030;-60
2024/01/25 00:32:22;;;;;;;33.03;6.30;;;;;;;;;;5004110;28;20289;-60
2024/01/25 00:34:47;;;;;;;33.47;6.80;;;;;;;;;;5005167;28;20280;-60
2024/01/25 00:37:13;;;;;;;30.58;6.20;;;;;;;;;;5005339;28;20320;-60
2024/01/25 00:39:38;;;;;;;32.90;6.20;;;;;;;;;;4994804;28;20530;-59
2024/01/25 00:42:05;;;;;;;32.42;6.03;;;;;;;;;;5003282;28;20277;-60
2024/01/25 00:44:30;;;;;;;32.10;5.78;;;;;;;;;;4994651;28;20022;-59
2024/01/25 00:46:55;;;;;;;29.67;6.05;;;;;;;;;;4999900;28;20113;-59
2024/01/25 00:49:21;;;;;;;32.63;5.88;;;;;;;;;;5001898;28;20022;-60
2024/01/25 00:51:47;;;;;;;31.10;5.38;;;;;;;;;;5004345;28;20177;-60
2024/01/25 00:54:12;;;;;;;32.75;6.60;;;;;;;;;;4993139;28;20049;-60
2024/01/25 00:56:38;;;;;;;35.97;6.90;;;;;;;;;;5004727;28;20026;-61
2024/01/25 00:59:03;;;;;;;31.05;6.47;;;;;;;;;;4992589;28;20046;-60
2024/01/25 01:01:28;;;;;;;33.42;6.78;;;;;;;;;;5001285;28;20033;-60
2024/01/25 01:03:55;;;;;;;34.50;7.43;;;;;;;;;;4996640;28;20030;-60
2024/01/25 01:06:20;;;;;;;29.58;6.00;;;;;;;;;;4996168;28;20100;-61
2024/01/25 01:08:45;;;;;;;32.83;6.60;;;;;;;;;;5003623;28;20053;-59
2024/01/25 01:11:11;;;;;;;31.77;6.65;;;;;;;;;;5008709;28;20061;-60
2024/01/25 01:13:36;;;;;;;34.97;7.35;;;;;;;;;;5001852;28;20030;-60
2024/01/25 01:16:01;;;;;;;34.13;6.18;;;;;;;;;;4992264;28;20536;-61
2024/01/25 01:18:26;;;;;;;29.97;6.33;;;;;;;;;;4998618;28;20037;-60
2024/01/25 01:20:52;;;;;;;33.03;6.35;;;;;;;;;;5006977;28;20307;-61
2024/01/25 01:23:17;;;;;;;34.53;6.87;;;;;;;;;;5001083;28;20129;-61
2024/01/25 01:25:42;;;;;;;30.33;6.43;;;;;;;;;;4993524;28;21480;-61
2024/01/25 01:28:07;;;;;;;32.17;7.40;;;;;;;;;;5001761;28;20026;-61
2024/01/25 01:30:33;;;;;;;30.47;6.77;;;;;;;;;;5011602;28;20065;-62
2024/01/25 01:32:58;;;;;;;32.23;6.73;;;;;;;;;;5004539;28;20351;-61
2024/01/25 01:35:23;;;;;;;33.50;7.00;;;;;;;;;;4992282;28;20261;-60
2024/01/25 01:37:48;;;;;;;34.17;6.40;;;;;;;;;;4998259;28;20323;-60
2024/01/25 01:40:13;;;;;;;32.03;5.80;;;;;;;;;;4996290;28;20277;-61
2024/01/25 01:42:39;;;;;;;30.13;6.05;;;;;;;;;;4995879;28;20281;-59
2024/01/25 01:45:04;;;;;;;33.72;6.47;;;;;;;;;;5000467;28;20023;-59
2024/01/25 01:47:30;;;;;;;33.00;6.18;;;;;;;;;;5009105;28;20033;-60
2024/01/25 01:49:55;;;;;;;36.58;6.70;;;;;;;;;;4996985;28;20152;-60
2024/01/25 01:52:21;;;;;;;32.03;6.47;;;;;;;;;;5011499;28;20521;-62
2024/01/25 01:54:47;;;;;;;34.33;7.53;;;;;;;;;;5003101;28;20083;-60
2024/01/25 01:57:12;;;;;;;31.13;6.28;;;;;;;;;;4992894;28;20022;-61
2024/01/25 01:59:37;;;;;;;33.63;6.27;;;;;;;;;;4997378;28;20037;-61
2024/01/25 02:02:03;;;;;;;31.47;5.93;;;;;;;;;;4997244;28;20336;-60
2024/01/25 02:04:28;;;;;;;35.17;6.78;;;;;;;;;;4994398;28;20828;-60
2024/01/25 02:06:53;;;;;;;33.17;6.60;;;;;;;;;;5001979;28;20370;-60
2024/01/25 02:09:18;;;;;;;30.60;7.28;;;;;;;;;;5009059;28;20058;-59
2024/01/25 02:11:44;;;;;;;34.80;6.50;;;;;;;;;;5002388;28;20037;-61
2024/01/25 02:14:11;;;;;;;30.27;6.63;;;;;;;;;;4990891;28;20088;-60
2024/01/25 02:16:37;;;;;;;30.50;5.97;;;;;;;;;;5000406;28;20032;-61
2024/01/25 02:19:03;;;;;;;32.97;6.13;;;;;;;;;;4994351;28;20097;-60
2024/01/25 02:21:28;;;;;;;34.40;6.30;;;;;;;;;;4994958;28;20081;-60
2024/01/25 02:23:53;;;;;;;29.70;5.97;;;;;;;;;;4999780;28;20050;-60
2024/01/25 02:26:18;;;;;;;31.73;6.70;;;;;;;;;;5001394;28;20405;-60
2024/01/25 02:28:43;;;;;;;32.83;5.63;;;;;;;;;;4998219;28;20276;-60
2024/01/25 02:31:08;;;;;;;33.50;6.40;;;;;;;;;;4991430;28;20721;-61
2024/01/25 02:33:34;;;;;;;29.37;5.97;;;;;;;;;;5003013;28;20504;-61
2024/01/25 02:35:59;;;;;;;28.67;5.93;;;;;;;;;;5010109;28;20018;-60
2024/01/25 02:38:24;;;;;;;33.50;7.10;;;;;;;;;;5002864;28;20573;-60
2024/01/25 02:40:49;;;;;;;28.17;5.35;;;;;;;;;;4995380;28;20266;-61
2024/01/25 02:43:14;;;;;;;31.37;5.67;;;;;;;;;;4993063;28;20034;-61
2024/01/25 02:45:40;;;;;;;29.60;5.63;;;;;;;;;;4999802;28;20825;-61
2024/01/25 02:48:05;;;;;;;29.70;5.87;;;;;;;;;;4991497;28;20309;-59
2024/01/25 02:50:30;;;;;;;30.50;5.78;;;;;;;;;;5000472;28;20265;-60
2024/01/25 02:52:55;;;;;;;28.13;6.00;;;;;;;;;;5003013;28;20513;-60
2024/01/25 02:55:21;;;;;;;36.03;6.57;;;;;;;;;;5002183;28;20273;-60
2024/01/25 02:57:46;;;;;;;34.60;5.93;;;;;;;;;;5001939;28;20272;-61
2024/01/25 03:00:12;;;;;;;31.00;5.87;;;;;;;;;;4992107;28;20042;-61
2024/01/25 03:02:37;;;;;;;31.17;6.47;;;;;;;;;;4998585;28;20807;-61
2024/01/25 03:05:02;;;;;;;34.93;7.30;;;;;;;;;;4994216;28;20411;-59
2024/01/25 03:07:27;;;;;;;28.80;5.55;;;;;;;;;;4994188;28;20077;-60
2024/01/25 03:09:52;;;;;;;29.03;5.90;;;;;;;;;;4999301;28;20076;-60
2024/01/25 03:12:19;;;;;;;33.43;7.17;;;;;;;;;;4992904;28;20125;-59
2024/01/25 03:14:44;;;;;;;29.48;6.20;;;;;;;;;;5000177;28;20266;-59
2024/01/25 03:17:09;;;;;;;37.13;6.38;;;;;;;;;;4989938;28;20760;-60
2024/01/25 03:19:34;;;;;;;31.00;6.10;;;;;;;;;;5002387;28;20025;-60
2024/01/25 03:22:02;;;;;;;34.45;6.38;;;;;;;;;;4988536;28;20096;-60
2024/01/25 03:24:27;;;;;;;33.97;6.40;;;;;;;;;;4997374;28;20032;-59
2024/01/25 03:26:52;;;;;;;30.80;6.22;;;;;;;;;;4994978;28;20102;-59
2024/01/25 03:29:17;;;;;;;36.97;6.27;;;;;;;;;;4993865;28;20019;-59
2024/01/25 03:31:42;;;;;;;32.27;6.50;;;;;;;;;;4999208;28;20018;-60
2024/01/25 03:34:07;;;;;;;32.13;6.03;;;;;;;;;;4990115;28;20840;-58
2024/01/25 03:36:33;;;;;;;34.65;6.65;;;;;;;;;;4990021;28;20350;-60
2024/01/25 03:38:58;;;;;;;34.95;6.95;;;;;;;;;;4990426;28;20022;-60
2024/01/25 03:41:24;;;;;;;34.23;5.87;;;;;;;;;;4989984;28;20077;-60
2024/01/25 03:43:49;;;;;;;32.95;6.40;;;;;;;;;;4990048;28;20281;-60
2024/01/25 03:46:14;;;;;;;33.65;7.13;;;;;;;;;;4990315;28;20023;-60
2024/01/25 03:48:39;;;;;;;30.20;6.97;;;;;;;;;;4990531;28;20022;-60
2024/01/25 03:51:05;;;;;;;31.30;6.25;;;;;;;;;;4989992;28;20264;-59
2024/01/25 03:53:30;;;;;;;32.75;5.95;;;;;;;;;;4990547;28;20031;-59
2024/01/25 03:55:55;;;;;;;35.90;6.60;;;;;;;;;;4990465;28;20022;-60
2024/01/25 03:58:20;;;;;;;33.37;5.97;;;;;;;;;;4990583;28;20026;-60
2024/01/25 04:00:45;;;;;;;31.87;6.70;;;;;;;;;;4990411;28;20770;-60
2024/01/25 04:03:11;;;;;;;37.38;6.35;;;;;;;;;;4995308;28;20355;-60
2024/01/25 04:05:36;;;;;;;32.60;6.55;;;;;;;;;;5001977;28;20033;-60
2024/01/25 04:08:01;;;;;;;34.33;6.28;;;;;;;;;;4993139;28;20021;-60
2024/01/25 04:10:26;;;;;;;35.35;6.63;;;;;;;;;;4993601;28;20026;-61
2024/01/25 04:12:52;;;;;;;31.87;5.43;;;;;;;;;;4993431;28;20018;-59
2024/01/25 04:15:17;;;;;;;31.10;5.88;;;;;;;;;;4993561;28;20258;-59
2024/01/25 04:17:42;;;;;;;30.92;6.28;;;;;;;;;;4993052;28;20410;-59
2024/01/25 04:20:08;;;;;;;33.60;6.80;;;;;;;;;;4993090;28;20470;-59
2024/01/25 04:22:33;;;;;;;34.10;6.38;;;;;;;;;;4993437;28;20026;-58
2024/01/25 04:24:59;;;;;;;32.80;6.33;;;;;;;;;;4992865;28;20104;-59
2024/01/25 04:27:24;;;;;;;30.27;5.70;;;;;;;;;;4993671;28;20745;-59
2024/01/25 04:29:49;;;;;;;34.03;6.32;;;;;;;;;;5005442;28;20066;-58
2024/01/25 04:32:14;;;;;;;32.25;6.05;;;;;;;;;;5006978;28;20053;-60
2024/01/25 04:34:39;;;;;;;31.40;6.07;;;;;;;;;;5012382;28;20026;-58
2024/01/25 04:37:05;;;;;;;30.38;6.22;;;;;;;;;;5012498;28;20269;-58
2024/01/25 04:39:30;;;;;;;36.65;6.50;;;;;;;;;;5012731;28;20022;-59
2024/01/25 04:41:55;;;;;;;26.00;5.20;;;;;;;;;;5012424;28;20037;-59
2024/01/25 04:44:20;;;;;;;29.43;5.40;;;;;;;;;;5012911;28;20316;-59
2024/01/25 04:46:45;;;;;;;29.07;6.20;;;;;;;;;;5012732;28;20320;-59
2024/01/25 04:49:10;;;;;;;31.77;6.23;;;;;;;;;;5012781;28;20273;-58
2024/01/25 04:51:36;;;;;;;33.37;6.17;;;;;;;;;;5012370;28;20296;-60
2024/01/25 04:54:01;;;;;;;32.07;5.77;;;;;;;;;;5012460;28;20275;-60
2024/01/25 04:56:26;;;;;;;33.70;5.82;;;;;;;;;;5012645;28;20273;-60
2024/01/25 04:58:51;;;;;;;27.27;5.93;;;;;;;;;;5012700;28;20021;-60
2024/01/25 05:01:16;;;;;;;31.17;5.70;;;;;;;;;;5012674;28;20294;-60
2024/01/25 05:03:42;;;;;;;33.60;6.17;;;;;;;;;;5012508;28;20261;-60
2024/01/25 05:06:07;;;;;;;30.43;5.50;;;;;;;;;;5003850;28;20268;-60
2024/01/25 05:08:32;;;;;;;32.37;6.10;;;;;;;;;;4994544;28;20579;-59
2024/01/25 05:10:57;;;;;;;28.48;5.38;;;;;;;;;;4991746;28;20360;-60
2024/01/25 05:13:23;;;;;;;33.65;6.40;;;;;;;;;;4990853;28;20053;-60
2024/01/25 05:15:48;;;;;;;32.78;6.65;;;;;;;;;;4992722;28;20097;-60
2024/01/25 05:18:13;;;;;;;29.75;5.80;;;;;;;;;;4992720;28;20455;-61
2024/01/25 05:20:38;;;;;;;26.70;5.57;;;;;;;;;;4992185;28;20327;-60
2024/01/25 05:23:04;;;;;;;30.85;6.20;;;;;;;;;;4992708;28;20383;-60
2024/01/25 05:25:29;;;;;;;29.13;5.68;;;;;;;;;;4992278;28;20116;-62
2024/01/25 05:27:55;;;;;;;32.42;5.72;;;;;;;;;;4992487;28;20033;-63
2024/01/25 05:30:24;;;;;;;29.70;6.32;;;;;;;;;;4992499;28;20033;-62
2024/01/25 05:32:49;;;;;;;32.22;6.10;;;;;;;;;;4997453;28;20033;-63
2024/01/25 05:35:14;;;;;;;33.17;5.88;;;;;;;;;;5004316;28;20387;-63
2024/01/25 05:37:40;;;;;;;28.98;6.47;;;;;;;;;;4991968;28;20014;-62
2024/01/25 05:40:05;;;;;;;31.37;5.83;;;;;;;;;;4999777;28;20064;-62
2024/01/25 05:42:30;;;;;;;39.33;6.75;;;;;;;;;;4997167;28;20709;-62
2024/01/25 05:44:56;;;;;;;33.00;6.40;;;;;;;;;;4995870;28;20041;-63
2024/01/25 05:47:21;;;;;;;30.23;7.25;;;;;;;;;;5000571;28;20274;-61
2024/01/25 05:49:46;;;;;;;35.03;6.75;;;;;;;;;;4992962;28;20029;-61
2024/01/25 05:52:12;;;;;;;32.28;6.93;;;;;;;;;;5002307;28;20058;-61
2024/01/25 05:54:37;;;;;;;31.25;6.47;;;;;;;;;;4991887;28;20030;-61
2024/01/25 05:57:03;;;;;;;34.73;6.93;;;;;;;;;;5002860;28;20034;-61
2024/01/25 05:59:29;;;;;;;29.45;6.18;;;;;;;;;;4992750;28;20269;-62
2024/01/25 06:01:54;;;;;;;33.95;6.50;;;;;;;;;;4998035;28;20026;-61
2024/01/25 06:04:20;;;;;;;31.70;6.80;;;;;;;;;;5004377;28;20030;-61
2024/01/25 06:06:45;;;;;;;32.38;6.60;;;;;;;;;;5003972;28;20265;-61
2024/01/25 06:09:10;;;;;;;35.38;6.57;;;;;;;;;;5004238;28;20378;-60
2024/01/25 06:11:36;;;;;;;36.03;8.13;;;;;;;;;;4998350;28;20052;-61
2024/01/25 06:14:01;;;;;;;35.45;6.70;;;;;;;;;;4993190;28;20018;-60
2024/01/25 06:16:26;;;;;;;33.53;7.60;;;;;;;;;;5002099;28;20493;-61
2024/01/25 06:18:51;;;;;;;35.07;6.57;;;;;;;;;;4990924;28;20264;-60
2024/01/25 06:21:17;;;;;;;34.67;6.55;;;;;;;;;;5002134;28;20268;-60
2024/01/25 06:23:42;;;;;;;34.08;7.60;;;;;;;;;;4992369;28;20030;-60
2024/01/25 06:26:07;;;;;;;33.80;7.57;;;;;;;;;;4996707;28;20021;-61
2024/01/25 06:28:32;;;;;;;30.00;6.73;;;;;;;;;;5004863;28;20418;-62
2024/01/25 06:30:57;;;;;;;32.57;7.47;;;;;;;;;;5006045;28;20106;-60
2024/01/25 06:33:22;;;;;;;27.80;5.87;;;;;;;;;;4997223;28;20487;-60
2024/01/25 06:35:48;;;;;;;35.90;6.70;;;;;;;;;;5007762;28;20273;-60
2024/01/25 06:38:13;;;;;;;30.88;6.72;;;;;;;;;;5001834;28;20636;-61
2024/01/25 06:40:38;;;;;;;32.75;7.47;;;;;;;;;;4994175;28;20469;-60
2024/01/25 06:43:03;;;;;;;36.47;7.32;;;;;;;;;;4998678;28;20029;-60
2024/01/25 06:45:29;;;;;;;34.38;7.15;;;;;;;;;;4995710;28;20031;-60
2024/01/25 06:47:54;;;;;;;33.08;6.65;;;;;;;;;;4996889;28;20033;-60
2024/01/25 06:50:19;;;;;;;32.03;6.53;;;;;;;;;;5010651;28;20017;-61
2024/01/25 06:52:44;;;;;;;30.77;6.57;;;;;;;;;;5003628;28;20301;-61
2024/01/25 06:55:09;;;;;;;34.63;6.87;;;;;;;;;;5001362;28;20378;-61
2024/01/25 06:57:35;;;;;;;30.05;6.93;;;;;;;;;;4991237;28;20142;-61
2024/01/25 07:00:00;;;;;;;31.77;6.95;;;;;;;;;;5005293;28;20030;-61
2024/01/25 07:02:25;;;;;;;34.40;6.30;;;;;;;;;;4991477;28;20018;-61
2024/01/25 07:04:52;;;;;;;29.83;6.70;;;;;;;;;;4996749;28;20277;-61
2024/01/25 07:07:18;;;;;;;27.83;7.18;;;;;;;;;;5004646;28;20080;-61
2024/01/25 07:09:43;;;;;;;32.73;7.27;;;;;;;;;;5005540;28;20022;-60
2024/01/25 07:12:08;;;;;;;33.10;7.43;;;;;;;;;;4999146;28;21211;-62
2024/01/25 07:14:33;;;;;;;33.85;8.45;;;;;;;;;;4992111;28;20308;-62
2024/01/25 07:16:58;;;;;;;31.10;7.57;;;;;;;;;;5002206;28;20050;-61
2024/01/25 07:19:23;;;;;;;34.07;7.93;;;;;;;;;;4990622;28;20677;-61
2024/01/25 07:21:49;;;;;;;34.03;7.93;;;;;;;;;;5000617;28;20296;-61
2024/01/25 07:24:14;;;;;;;31.50;7.37;;;;;;;;;;4991635;28;20372;-61
2024/01/25 07:26:39;;;;;;;31.33;7.97;;;;;;;;;;5002088;28;20280;-61
2024/01/25 07:29:04;;;;;;;30.13;7.33;;;;;;;;;;5001620;28;20014;-61
2024/01/25 07:31:29;;;;;;;32.43;7.07;;;;;;;;;;5001714;28;20804;-60
2024/01/25 07:33:55;;;;;;;32.93;7.27;;;;;;;;;;4999986;28;20034;-61
2024/01/25 07:36:20;;;;;;;32.40;7.68;;;;;;;;;;4991897;28;21033;-61
2024/01/25 07:38:48;;;;;;;32.03;7.93;;;;;;;;;;5005894;28;20044;-62
2024/01/25 07:41:14;;;;;;;35.25;7.47;;;;;;;;;;4994649;28;20022;-61
2024/01/25 07:43:40;;;;;;;31.45;7.07;;;;;;;;;;5001955;28;20045;-62
2024/01/25 07:46:05;;;;;;;30.55;7.78;;;;;;;;;;4998740;28;20101;-62
2024/01/25 07:48:31;;;;;;;38.17;9.00;;;;;;;;;;5001210;28;20125;-62
2024/01/25 07:50:56;;;;;;;32.85;8.80;;;;;;;;;;5009448;28;20351;-63
2024/01/25 07:53:22;;;;;;;32.72;8.45;;;;;;;;;;5006367;28;20133;-62
2024/01/25 07:55:47;;;;;;;35.58;8.43;;;;;;;;;;5008146;28;20089;-61
2024/01/25 07:58:13;;;;;;;36.93;8.30;;;;;;;;;;4995807;28;20117;-62
2024/01/25 08:00:38;;;;;;;34.60;8.27;;;;;;;;;;5003920;28;20332;-61
2024/01/25 08:03:04;;;;;;;30.60;8.30;;;;;;;;;;4996399;28;20023;-60
2024/01/25 08:05:29;;;;;;;32.75;7.60;;;;;;;;;;5002323;28;20274;-61
2024/01/25 08:07:54;;;;;;;34.30;8.30;;;;;;;;;;4994089;28;20462;-61
2024/01/25 08:10:19;;;;;;;33.67;7.97;;;;;;;;;;4993934;28;20253;-62
2024/01/25 08:12:47;;;;;;;29.03;7.90;;;;;;;;;;4993952;28;20304;-60
2024/01/25 08:15:13;;;;;;;33.25;8.35;;;;;;;;;;4993834;28;20454;-59
2024/01/25 08:17:38;;;;;;;32.58;7.80;;;;;;;;;;4993828;28;20018;-60
2024/01/25 08:20:05;;;;;;;36.05;8.85;;;;;;;;;;5001004;28;20017;-61
2024/01/25 08:22:31;;;;;;;37.58;8.73;;;;;;;;;;5001879;28;20138;-62
2024/01/25 08:24:56;;;;;;;37.75;9.02;;;;;;;;;;5005579;28;20113;-62
2024/01/25 08:27:21;;;;;;;40.23;9.57;;;;;;;;;;5013232;28;20424;-61
2024/01/25 08:29:46;;;;;;;38.00;9.20;;;;;;;;;;5012885;28;20030;-60
2024/01/25 08:32:11;;;;;;;31.07;8.23;;;;;;;;;;5013081;28;20280;-61
2024/01/25 08:34:36;;;;;;;29.03;8.20;;;;;;;;;;5013169;28;20087;-59
2024/01/25 08:37:02;;;;;;;34.63;8.37;;;;;;;;;;5013145;28;20724;-60
2024/01/25 08:39:27;;;;;;;31.85;9.35;;;;;;;;;;5013177;28;20273;-60
2024/01/25 08:41:53;;;;;;;33.22;8.55;;;;;;;;;;5005839;28;20034;-59
2024/01/25 08:44:18;;;;;;;33.85;9.32;;;;;;;;;;5003063;28;20415;-60
2024/01/25 08:46:43;;;;;;;41.57;11.93;;;;;;;;;;5010816;28;20419;-54
2024/01/25 08:49:10;;;;;;;35.42;10.20;;;;;;;;;;5010460;28;20272;-59
2024/01/25 08:51:35;;;;;;;36.63;9.60;;;;;;;;;;5010475;28;20072;-58
2024/01/25 08:54:00;;;;;;;32.47;8.88;;;;;;;;;;5002638;28;20340;-60
2024/01/25 08:56:26;;;;;;;34.95;8.48;;;;;;;;;;5005154;28;20419;-59
2024/01/25 08:58:52;;;;;;;39.23;10.30;;;;;;;;;;5011166;28;20120;-59
2024/01/25 09:01:17;;;;;;;32.15;9.05;;;;;;;;;;5003260;28;20285;-59
2024/01/25 09:03:42;;;;;;;36.42;9.85;;;;;;;;;;5007802;28;20034;-61
2024/01/25 09:06:07;;;;;;;31.77;9.45;;;;;;;;;;5008881;28;20018;-60
2024/01/25 09:08:33;;;;;;;36.27;10.20;;;;;;;;;;5010653;28;20067;-59
2024/01/25 09:10:58;;;;;;;35.67;9.88;;;;;;;;;;5010473;28;20819;-60
2024/01/25 09:13:24;;;;;;;35.80;9.65;;;;;;;;;;5010597;28;20033;-60
2024/01/25 09:15:49;;;;;;;36.45;11.05;;;;;;;;;;5010614;28;20100;-60
2024/01/25 09:18:14;;;;;;;34.70;9.60;;;;;;;;;;5010436;28;20061;-60
2024/01/25 09:20:40;;;;;;;31.10;10.25;;;;;;;;;;5010216;28;20287;-61
2024/01/25 09:23:05;;;;;;;35.72;10.27;;;;;;;;;;5000004;28;20143;-61
2024/01/25 09:25:31;;;;;;;33.30;10.27;;;;;;;;;;4997608;28;20448;-59
2024/01/25 09:27:57;;;;;;;35.55;9.68;;;;;;;;;;4998401;28;20787;-60
2024/01/25 09:30:22;;;;;;;34.85;10.00;;;;;;;;;;5005656;28;20033;-59
2024/01/25 09:32:47;;;;;;;35.92;10.85;;;;;;;;;;5003778;28;20029;-60
2024/01/25 09:35:12;;;;;;;33.30;10.13;;;;;;;;;;4999169;28;20026;-60
2024/01/25 09:37:38;;;;;;;36.37;10.90;;;;;;;;;;4990536;28;20025;-60
2024/01/25 09:40:03;;;;;;;35.88;11.35;;;;;;;;;;4999114;28;20268;-60
2024/01/25 09:42:29;;;;;;;38.35;11.65;;;;;;;;;;5008809;28;20496;-61
2024/01/25 09:44:54;;;;;;;34.35;10.25;;;;;;;;;;4998572;28;20022;-59
2024/01/25 09:47:21;;;;;;;37.35;11.35;;;;;;;;;;4996971;28;20109;-60
2024/01/25 09:49:46;;;;;;;35.92;11.40;;;;;;;;;;4991452;28;20021;-59
2024/01/25 09:52:12;;;;;;;37.08;11.18;;;;;;;;;;4997926;28;20418;-60
2024/01/25 09:54:38;;;;;;;35.42;11.20;;;;;;;;;;4988697;28;20022;-60
2024/01/25 09:57:05;;;;;;;34.83;10.57;;;;;;;;;;5000350;28;20524;-60
2024/01/25 09:59:31;;;;;;;35.17;11.13;;;;;;;;;;4990025;28;20105;-60
2024/01/25 10:01:56;;;;;;;35.37;10.40;;;;;;;;;;4997661;28;20105;-60
2024/01/25 10:04:23;;;;;;;41.55;16.63;;;;;;;;;;4992812;28;21002;-61
2024/01/25 10:06:48;;;;;;;34.03;10.45;;;;;;;;;;5002416;28;20493;-61
2024/01/25 10:09:14;;;;;;;36.67;10.70;;;;;;;;;;4998976;28;20024;-60
2024/01/25 10:11:39;;;;;;;32.85;10.98;;;;;;;;;;4989444;28;20478;-60
2024/01/25 10:14:04;;;;;;;34.50;11.65;;;;;;;;;;5003466;28;20024;-60
2024/01/25 10:16:30;;;;;;;32.45;11.45;;;;;;;;;;4990464;28;20022;-60
2024/01/25 10:18:55;;;;;;;34.35;11.27;;;;;;;;;;5002366;28;20109;-60
2024/01/25 10:21:21;;;;;;;34.00;11.93;;;;;;;;;;4995863;28;20466;-60
2024/01/25 10:23:51;;;;;;;34.55;12.40;;;;;;;;;;4994472;28;20435;-60
2024/01/25 10:26:17;;;;;;;34.10;11.68;;;;;;;;;;4997366;28;20026;-61
2024/01/25 10:28:42;;;;;;;33.05;10.82;;;;;;;;;;4998092;28;20068;-59
2024/01/25 10:31:08;;;;;;;39.30;14.43;;;;;;;;;;5000589;28;20014;-61
2024/01/25 10:33:34;;;;;;;32.30;11.02;;;;;;;;;;5007857;28;20854;-60
2024/01/25 10:36:03;;;;;;;35.03;12.50;;;;;;;;;;5000613;28;20029;-61
2024/01/25 10:38:31;;;;;;;35.10;11.55;;;;;;;;;;4989437;28;20474;-60
2024/01/25 10:40:59;;;;;;;34.70;12.15;;;;;;;;;;4991444;28;20026;-60
2024/01/25 10:43:25;;;;;;;39.65;12.02;;;;;;;;;;5003493;28;20050;-59
2024/01/25 10:45:55;;;;;;;35.58;11.40;;;;;;;;;;5002427;28;20060;-60
2024/01/25 10:48:20;;;;;;;31.83;10.93;;;;;;;;;;4997838;28;20101;-60
2024/01/25 10:50:46;;;;;;;32.45;11.55;;;;;;;;;;4998090;28;20105;-61
2024/01/25 10:53:12;;;;;;;34.50;12.38;;;;;;;;;;4998025;28;20058;-60
2024/01/25 10:55:37;;;;;;;36.63;11.98;;;;;;;;;;4990094;28;20092;-60
2024/01/25 10:58:02;;;;;;;35.50;11.53;;;;;;;;;;5000083;28;20023;-61
2024/01/25 11:00:31;;;;;;;35.28;11.60;;;;;;;;;;4989035;28;20270;-61
2024/01/25 11:02:56;;;;;;;35.42;11.95;;;;;;;;;;4994843;28;20900;-61
2024/01/25 11:05:23;;;;;;;37.58;11.52;;;;;;;;;;5004180;28;20025;-61
2024/01/25 11:07:48;;;;;;;38.47;11.77;;;;;;;;;;4997567;28;20022;-60
2024/01/25 11:10:14;;;;;;;36.80;11.90;;;;;;;;;;4998714;28;20366;-61
2024/01/25 11:12:46;;;;;;;38.00;11.93;;;;;;;;;;5001660;28;20137;-60
2024/01/25 11:15:17;;;;;;;35.22;11.60;;;;;;;;;;5001613;28;20072;-60
2024/01/25 11:17:42;;;;;;;38.78;12.60;;;;;;;;;;4994340;28;20042;-60
2024/01/25 11:20:13;;;;;;;37.73;11.93;;;;;;;;;;5003561;28;20474;-60
2024/01/25 11:22:44;;;;;;;38.22;11.68;;;;;;;;;;4999569;28;20300;-61
2024/01/25 11:25:13;;;;;;;37.40;12.70;;;;;;;;;;5000360;28;20026;-61
2024/01/25 11:27:38;;;;;;;34.60;11.38;;;;;;;;;;5005105;28;20032;-60
2024/01/25 11:30:08;;;;;;;37.25;12.55;;;;;;;;;;5004586;28;20101;-60
2024/01/25 11:32:33;;;;;;;39.60;13.15;;;;;;;;;;4997318;28;20022;-59
2024/01/25 11:34:59;;;;;;;41.23;13.80;;;;;;;;;;4995755;28;20033;-59
2024/01/25 11:37:24;;;;;;;42.25;14.07;;;;;;;;;;5001538;28;20706;-60
2024/01/25 11:39:49;;;;;;;42.17;14.27;;;;;;;;;;5007620;28;20026;-60
2024/01/25 11:42:14;;;;;;;39.10;14.03;;;;;;;;;;5000982;28;20427;-60
2024/01/25 11:44:39;;;;;;;36.30;13.93;;;;;;;;;;4992304;28;20346;-59
2024/01/25 11:47:05;;;;;;;39.40;13.60;;;;;;;;;;4997619;28;20360;-60
2024/01/25 11:49:30;;;;;;;36.50;14.30;;;;;;;;;;4993831;28;20792;-60
2024/01/25 11:51:58;;;;;;;37.03;13.20;;;;;;;;;;5000582;28;20133;-61
2024/01/25 11:54:23;;;;;;;38.38;12.95;;;;;;;;;;5010742;28;20030;-60
2024/01/25 11:56:48;;;;;;;39.93;12.13;;;;;;;;;;5004112;28;20025;-61
2024/01/25 11:59:13;;;;;;;40.35;13.73;;;;;;;;;;4993627;28;20109;-61
2024/01/25 12:01:39;;;;;;;37.88;13.25;;;;;;;;;;4997893;28;20050;-58
2024/01/25 12:04:04;;;;;;;40.13;12.85;;;;;;;;;;4996632;28;20029;-60
2024/01/25 12:06:30;;;;;;;41.83;13.27;;;;;;;;;;4996016;28;20036;-59
2024/01/25 12:08:55;;;;;;;38.92;12.88;;;;;;;;;;5000801;28;20097;-61
2024/01/25 12:11:21;;;;;;;33.17;12.20;;;;;;;;;;4991912;28;20069;-61
2024/01/25 12:13:47;;;;;;;41.75;13.27;;;;;;;;;;5002824;28;20297;-61
2024/01/25 12:16:13;;;;;;;37.80;13.07;;;;;;;;;;4992121;28;20092;-61
2024/01/25 12:18:41;;;;;;;37.97;12.30;;;;;;;;;;5002818;28;20276;-60
2024/01/25 12:21:06;;;;;;;41.33;13.05;;;;;;;;;;4993177;28;20023;-61
2024/01/25 12:23:36;;;;;;;35.25;13.40;;;;;;;;;;4996740;28;20026;-61
2024/01/25 12:26:04;;;;;;;40.10;12.82;;;;;;;;;;5011708;28;20124;-61
2024/01/25 12:28:30;;;;;;;37.53;12.85;;;;;;;;;;5003530;28;20026;-60
2024/01/25 12:30:55;;;;;;;39.28;12.75;;;;;;;;;;4997284;28;20031;-61
2024/01/25 12:33:20;;;;;;;37.15;15.07;;;;;;;;;;4997477;28;20109;-61
2024/01/25 12:35:45;;;;;;;37.80;14.07;;;;;;;;;;4991479;28;20029;-61
2024/01/25 12:38:11;;;;;;;38.63;14.80;;;;;;;;;;4990102;28;20110;-60
2024/01/25 12:40:36;;;;;;;38.40;14.97;;;;;;;;;;4989967;28;20057;-61
2024/01/25 12:43:01;;;;;;;37.20;13.80;;;;;;;;;;4989724;28;20804;-60
2024/01/25 12:45:26;;;;;;;36.50;13.27;;;;;;;;;;4992113;28;20140;-59
2024/01/25 12:47:52;;;;;;;41.03;15.30;;;;;;;;;;4999973;28;20279;-60
2024/01/25 12:50:17;;;;;;;37.00;14.97;;;;;;;;;;5002150;28;20092;-60
2024/01/25 12:52:42;;;;;;;41.70;14.80;;;;;;;;;;5001812;28;20422;-60
2024/01/25 12:55:07;;;;;;;36.73;13.33;;;;;;;;;;5001491;28;20148;-60
2024/01/25 12:57:34;;;;;;;35.55;12.75;;;;;;;;;;4991278;28;20272;-60
2024/01/25 12:59:59;;;;;;;39.35;12.90;;;;;;;;;;4996204;28;20113;-61
2024/01/25 13:02:24;;;;;;;34.83;13.03;;;;;;;;;;5000046;28;20109;-60
2024/01/25 13:04:50;;;;;;;32.90;11.57;;;;;;;;;;5002417;28;20402;-60
2024/01/25 13:07:15;;;;;;;38.55;11.48;;;;;;;;;;4999641;28;20023;-60
2024/01/25 13:09:40;;;;;;;36.08;12.43;;;;;;;;;;4992171;28;20352;-60
2024/01/25 13:12:06;;;;;;;34.17;11.97;;;;;;;;;;4994848;28;20026;-60
2024/01/25 13:14:32;;;;;;;36.40;11.52;;;;;;;;;;4990799;28;20026;-60
2024/01/25 13:16:57;;;;;;;36.22;11.68;;;;;;;;;;5002104;28;20521;-61
2024/01/25 13:19:22;;;;;;;33.90;12.43;;;;;;;;;;5010281;28;20029;-60
2024/01/25 13:21:48;;;;;;;36.30;11.93;;;;;;;;;;5002644;28;20033;-60
2024/01/25 13:24:13;;;;;;;39.30;12.60;;;;;;;;;;4996632;28;20029;-60
2024/01/25 13:26:38;;;;;;;36.00;12.20;;;;;;;;;;4994558;28;20457;-60
2024/01/25 13:29:03;;;;;;;32.97;11.63;;;;;;;;;;5001875;28;20029;-60
2024/01/25 13:31:28;;;;;;;40.10;12.87;;;;;;;;;;4990933;28;20305;-61
2024/01/25 13:33:54;;;;;;;35.17;12.07;;;;;;;;;;5001372;28;20037;-61
2024/01/25 13:36:19;;;;;;;35.30;12.55;;;;;;;;;;4990294;28;20113;-61
2024/01/25 13:38:44;;;;;;;36.70;11.70;;;;;;;;;;4998467;28;20052;-61
2024/01/25 13:41:09;;;;;;;34.53;12.00;;;;;;;;;;4998233;28;20022;-61
2024/01/25 13:43:34;;;;;;;38.20;12.80;;;;;;;;;;4992829;28;20030;-61
2024/01/25 13:46:00;;;;;;;34.93;12.07;;;;;;;;;;5001222;28;20036;-61
2024/01/25 13:48:25;;;;;;;37.23;11.47;;;;;;;;;;4988728;28;20843;-61
2024/01/25 13:50:50;;;;;;;37.30;12.95;;;;;;;;;;4995011;28;20281;-61
2024/01/25 13:53:16;;;;;;;33.50;12.90;;;;;;;;;;4997653;28;20548;-60
2024/01/25 13:55:41;;;;;;;35.78;12.55;;;;;;;;;;4989228;28;20156;-60
2024/01/25 13:58:06;;;;;;;36.10;13.00;;;;;;;;;;5000798;28;20026;-60
2024/01/25 14:00:31;;;;;;;39.80;12.53;;;;;;;;;;4990265;28;20599;-60
2024/01/25 14:02:56;;;;;;;35.28;13.00;;;;;;;;;;4999721;28;20500;-61
2024/01/25 14:05:22;;;;;;;34.57;12.17;;;;;;;;;;4992038;28;20494;-60
2024/01/25 14:07:47;;;;;;;38.60;13.20;;;;;;;;;;4996798;28;20285;-60
2024/01/25 14:10:13;;;;;;;37.30;13.23;;;;;;;;;;4999226;28;20037;-61
2024/01/25 14:12:38;;;;;;;38.22;12.55;;;;;;;;;;4999405;28;20042;-60
2024/01/25 14:15:03;;;;;;;38.43;12.57;;;;;;;;;;5000157;28;20033;-60